UAL933 EDDF-KIAD
Flight info
| Callsign | UAL933 |
|---|---|
| Flight time | N/A |
| Altitude | 34000 |
| Route | OBOKA5G/25C OBOKA Z29 TORNU DCT VELED DCT BREDA DCT GALSO Q63 ERING L179 UGBET Q60 OKSAW DCT TIGWE DCT ARPAK DCT FELCA DCT FADZU DCT NICXI DCT OFSOX DCT SLANY DCT LUNIG DCT LUPOR DCT MALOT/M083F350 DCT 54N020W 54N030W 54N040W 53N050W DCT RIKAL/N0468F360 N572A TOPPS/N0465F380 DCT KAYCC DCT KYLOH DCT BAF HYPER9 |
| Aircraft | B77W/H-SDE1E2E3FGHIJ2J3J4J5M1RWXY/LB1D1 |
Departure
| Time | 2026-05-05 16:10 |
|---|---|
| Airport | Frankfurt Main Airport (EDDF) |
Arrival
| Time | N/A |
|---|---|
| Airport | Washington Dulles International Airport (KIAD) |
| Time | Latitude | Longitude | Altitude | Speed | Heading |
|---|---|---|---|---|---|
| 2026-05-05 15:41 | 50.04584 | 8.56609 | 366 ft | 0 kts | 114° |
| 2026-05-05 15:42 | 50.04583 | 8.56610 | 369 ft | 0 kts | 115° |
| 2026-05-05 15:52 | 50.04588 | 8.56594 | 367 ft | 4 kts | 115° |
| 2026-05-05 15:53 | 50.04600 | 8.56556 | 365 ft | 4 kts | 118° |
| 2026-05-05 15:53 | 50.04614 | 8.56521 | 368 ft | 4 kts | 132° |
| 2026-05-05 15:53 | 50.04632 | 8.56500 | 366 ft | 4 kts | 189° |
| 2026-05-05 15:53 | 50.04632 | 8.56498 | 366 ft | 4 kts | 204° |
| 2026-05-05 15:54 | 50.04608 | 8.56480 | 369 ft | 4 kts | 204° |
| 2026-05-05 15:54 | 50.04592 | 8.56469 | 369 ft | 0 kts | 205° |
| 2026-05-05 16:02 | 50.04586 | 8.56465 | 361 ft | 5 kts | 205° |
| 2026-05-05 16:02 | 50.04542 | 8.56425 | 366 ft | 8 kts | 221° |
| 2026-05-05 16:02 | 50.04502 | 8.56317 | 365 ft | 14 kts | 248° |
| 2026-05-05 16:03 | 50.04467 | 8.56179 | 368 ft | 14 kts | 250° |
| 2026-05-05 16:03 | 50.04426 | 8.56046 | 367 ft | 14 kts | 222° |
| 2026-05-05 16:03 | 50.04361 | 8.56047 | 367 ft | 12 kts | 163° |
| 2026-05-05 16:03 | 50.04300 | 8.56125 | 368 ft | 12 kts | 109° |
| 2026-05-05 16:04 | 50.04252 | 8.56226 | 363 ft | 12 kts | 150° |
| 2026-05-05 16:04 | 50.04176 | 8.56276 | 365 ft | 11 kts | 159° |
| 2026-05-05 16:04 | 50.04146 | 8.56331 | 365 ft | 6 kts | 97° |
| 2026-05-05 16:04 | 50.04164 | 8.56435 | 365 ft | 19 kts | 71° |
| 2026-05-05 16:05 | 50.04219 | 8.56665 | 368 ft | 23 kts | 70° |
| 2026-05-05 16:05 | 50.04276 | 8.56897 | 367 ft | 23 kts | 68° |
| 2026-05-05 16:05 | 50.04330 | 8.57129 | 369 ft | 23 kts | 70° |
| 2026-05-05 16:05 | 50.04386 | 8.57363 | 370 ft | 23 kts | 70° |
| 2026-05-05 16:06 | 50.04442 | 8.57598 | 372 ft | 23 kts | 69° |
| 2026-05-05 16:06 | 50.04497 | 8.57832 | 371 ft | 23 kts | 70° |
| 2026-05-05 16:06 | 50.04553 | 8.58066 | 371 ft | 23 kts | 70° |
| 2026-05-05 16:06 | 50.04609 | 8.58300 | 378 ft | 22 kts | 70° |
| 2026-05-05 16:07 | 50.04653 | 8.58492 | 377 ft | 11 kts | 82° |
| 2026-05-05 16:07 | 50.04619 | 8.58567 | 375 ft | 8 kts | 149° |
| 2026-05-05 16:07 | 50.04570 | 8.58601 | 379 ft | 8 kts | 159° |
| 2026-05-05 16:07 | 50.04520 | 8.58625 | 379 ft | 6 kts | 180° |
| 2026-05-05 16:08 | 50.04489 | 8.58583 | 379 ft | 6 kts | 240° |
| 2026-05-05 16:08 | 50.04480 | 8.58552 | 378 ft | 0 kts | 247° |
| 2026-05-05 16:09 | 50.04441 | 8.58397 | 379 ft | 41 kts | 249° |
| 2026-05-05 16:09 | 50.04264 | 8.57651 | 370 ft | 106 kts | 250° |
| 2026-05-05 16:09 | 50.03939 | 8.56293 | 362 ft | 159 kts | 250° |
| 2026-05-05 16:09 | 50.03501 | 8.54525 | 574 ft | 179 kts | 246° |
| 2026-05-05 16:10 | 50.03048 | 8.52754 | 804 ft | 198 kts | 248° |
| 2026-05-05 16:10 | 50.02698 | 8.50715 | 1372 ft | 197 kts | 268° |
| 2026-05-05 16:10 | 50.02807 | 8.48597 | 1997 ft | 198 kts | 274° |
| 2026-05-05 16:10 | 50.02948 | 8.46400 | 2293 ft | 217 kts | 274° |
| 2026-05-05 16:11 | 50.03033 | 8.43954 | 2555 ft | 231 kts | 263° |
| 2026-05-05 16:11 | 50.02049 | 8.36198 | 4257 ft | 253 kts | 258° |
| 2026-05-05 16:12 | 50.01726 | 8.33511 | 4904 ft | 258 kts | 258° |
| 2026-05-05 16:12 | 50.01296 | 8.27912 | 6106 ft | 269 kts | 281° |
| 2026-05-05 16:13 | 50.03629 | 8.19739 | 7859 ft | 281 kts | 292° |
| 2026-05-05 16:13 | 50.04440 | 8.16946 | 8539 ft | 283 kts | 292° |
| 2026-05-05 16:13 | 50.05259 | 8.14124 | 9186 ft | 288 kts | 292° |
| 2026-05-05 16:14 | 50.07354 | 8.08725 | 10199 ft | 305 kts | 307° |
| 2026-05-05 16:14 | 50.10259 | 8.03305 | 10507 ft | 349 kts | 308° |
| 2026-05-05 16:15 | 50.13516 | 7.97159 | 11181 ft | 379 kts | 308° |
| 2026-05-05 16:15 | 50.16876 | 7.90668 | 12652 ft | 390 kts | 307° |
| 2026-05-05 16:16 | 50.20313 | 7.83950 | 14283 ft | 400 kts | 307° |
| 2026-05-05 16:16 | 50.23805 | 7.77109 | 15768 ft | 409 kts | 308° |
| 2026-05-05 16:17 | 50.28243 | 7.71631 | 16856 ft | 415 kts | 339° |
| 2026-05-05 16:17 | 50.30984 | 7.70005 | 17362 ft | 424 kts | 338° |
| 2026-05-05 16:18 | 50.36432 | 7.66342 | 18743 ft | 431 kts | 336° |
| 2026-05-05 16:18 | 50.39185 | 7.64430 | 19388 ft | 434 kts | 336° |
| 2026-05-05 16:18 | 50.44803 | 7.60555 | 20520 ft | 445 kts | 335° |
| 2026-05-05 16:19 | 50.47661 | 7.58586 | 21129 ft | 449 kts | 335° |
| 2026-05-05 16:19 | 50.50498 | 7.56631 | 21740 ft | 453 kts | 335° |
| 2026-05-05 16:19 | 50.56333 | 7.52561 | 22906 ft | 460 kts | 333° |
| 2026-05-05 16:20 | 50.61816 | 7.47171 | 23854 ft | 468 kts | 324° |
| 2026-05-05 16:20 | 50.67177 | 7.41329 | 24854 ft | 474 kts | 325° |
| 2026-05-05 16:21 | 50.72742 | 7.35557 | 25730 ft | 478 kts | 322° |
| 2026-05-05 16:22 | 50.78188 | 7.22687 | 26728 ft | 481 kts | 293° |
| 2026-05-05 16:22 | 50.81189 | 7.13124 | 27563 ft | 487 kts | 294° |
| 2026-05-05 16:23 | 50.84284 | 7.03595 | 28397 ft | 491 kts | 294° |
| 2026-05-05 16:23 | 50.85845 | 6.98763 | 28859 ft | 492 kts | 294° |
| 2026-05-05 16:23 | 50.88959 | 6.89081 | 29781 ft | 493 kts | 294° |
| 2026-05-05 16:24 | 50.90496 | 6.84307 | 30240 ft | 491 kts | 294° |
| 2026-05-05 16:24 | 50.92054 | 6.79461 | 30644 ft | 491 kts | 294° |
| 2026-05-05 16:24 | 50.95141 | 6.69829 | 31377 ft | 491 kts | 293° |
| 2026-05-05 16:25 | 50.96691 | 6.64976 | 31794 ft | 491 kts | 293° |
| 2026-05-05 16:25 | 50.99768 | 6.55311 | 32694 ft | 487 kts | 293° |
| 2026-05-05 16:25 | 51.01277 | 6.50557 | 33046 ft | 487 kts | 292° |
| 2026-05-05 16:26 | 51.04335 | 6.40894 | 33592 ft | 489 kts | 292° |
| 2026-05-05 16:26 | 51.07380 | 6.31229 | 33845 ft | 493 kts | 292° |
| 2026-05-05 16:27 | 51.10443 | 6.21486 | 33852 ft | 489 kts | 292° |
| 2026-05-05 16:27 | 51.13417 | 6.11801 | 33864 ft | 481 kts | 288° |
| 2026-05-05 16:28 | 51.15409 | 6.01823 | 33859 ft | 469 kts | 278° |
| 2026-05-05 16:28 | 51.16949 | 5.91715 | 33859 ft | 468 kts | 279° |
| 2026-05-05 16:29 | 51.19251 | 5.81914 | 33864 ft | 477 kts | 292° |
| 2026-05-05 16:29 | 51.22790 | 5.72936 | 33866 ft | 482 kts | 302° |
| 2026-05-05 16:30 | 51.26758 | 5.64248 | 33868 ft | 484 kts | 303° |
| 2026-05-05 16:30 | 51.30674 | 5.55545 | 33864 ft | 485 kts | 302° |
| 2026-05-05 16:31 | 51.34582 | 5.46719 | 33891 ft | 485 kts | 302° |
| 2026-05-05 16:31 | 51.38483 | 5.37864 | 33884 ft | 485 kts | 301° |
| 2026-05-05 16:32 | 51.41798 | 5.28593 | 33887 ft | 481 kts | 294° |
| 2026-05-05 16:32 | 51.44898 | 5.19053 | 33892 ft | 483 kts | 294° |
| 2026-05-05 16:33 | 51.48034 | 5.09503 | 33887 ft | 482 kts | 294° |
| 2026-05-05 16:33 | 51.51152 | 5.00070 | 33871 ft | 480 kts | 294° |
| 2026-05-05 16:34 | 51.54251 | 4.90597 | 33869 ft | 476 kts | 292° |
| 2026-05-05 16:34 | 51.56493 | 4.80751 | 33891 ft | 467 kts | 280° |
| 2026-05-05 16:35 | 51.57506 | 4.72237 | 33898 ft | 465 kts | 275° |
| 2026-05-05 16:35 | 51.58574 | 4.61952 | 33884 ft | 467 kts | 275° |
| 2026-05-05 16:36 | 51.59663 | 4.51612 | 33894 ft | 469 kts | 276° |
| 2026-05-05 16:36 | 51.60761 | 4.41302 | 33878 ft | 471 kts | 276° |
| 2026-05-05 16:37 | 51.61871 | 4.30865 | 33876 ft | 472 kts | 276° |
| 2026-05-05 16:37 | 51.62970 | 4.20425 | 33886 ft | 472 kts | 275° |
| 2026-05-05 16:38 | 51.64053 | 4.10046 | 33894 ft | 472 kts | 275° |
| 2026-05-05 16:38 | 51.65131 | 3.99614 | 33881 ft | 471 kts | 275° |
| 2026-05-05 16:39 | 51.66190 | 3.89263 | 33881 ft | 470 kts | 275° |
| 2026-05-05 16:39 | 51.67245 | 3.78861 | 33890 ft | 469 kts | 275° |
| 2026-05-05 16:40 | 51.68287 | 3.68488 | 33894 ft | 468 kts | 275° |
| 2026-05-05 16:40 | 51.69312 | 3.58200 | 33896 ft | 467 kts | 275° |
| 2026-05-05 16:41 | 51.70335 | 3.47826 | 33905 ft | 466 kts | 275° |
| 2026-05-05 16:41 | 51.71338 | 3.37561 | 33918 ft | 466 kts | 275° |
| 2026-05-05 16:42 | 51.72349 | 3.27125 | 33926 ft | 475 kts | 275° |
| 2026-05-05 16:42 | 51.72996 | 3.16476 | 33912 ft | 473 kts | 266° |
| 2026-05-05 16:43 | 51.72418 | 3.06018 | 33921 ft | 468 kts | 258° |
| 2026-05-05 16:43 | 51.71458 | 2.95626 | 33917 ft | 468 kts | 258° |
| 2026-05-05 16:44 | 51.70535 | 2.85279 | 33923 ft | 468 kts | 259° |
| 2026-05-05 16:44 | 51.69622 | 2.74852 | 33915 ft | 468 kts | 259° |
| 2026-05-05 16:45 | 51.68705 | 2.64505 | 33925 ft | 468 kts | 259° |
| 2026-05-05 16:45 | 51.67774 | 2.54140 | 33919 ft | 468 kts | 259° |
| 2026-05-05 16:46 | 51.66823 | 2.43735 | 33922 ft | 468 kts | 259° |
| 2026-05-05 16:46 | 51.65845 | 2.33347 | 33929 ft | 468 kts | 259° |
| 2026-05-05 16:47 | 51.64870 | 2.23062 | 33919 ft | 467 kts | 259° |
| 2026-05-05 16:47 | 51.63886 | 2.12734 | 33928 ft | 465 kts | 259° |
| 2026-05-05 16:48 | 51.62933 | 2.02386 | 33924 ft | 465 kts | 259° |
| 2026-05-05 16:48 | 51.62006 | 1.92112 | 33941 ft | 465 kts | 259° |
| 2026-05-05 16:49 | 51.61038 | 1.81761 | 33933 ft | 469 kts | 259° |
| 2026-05-05 16:49 | 51.60067 | 1.71419 | 33934 ft | 471 kts | 259° |
| 2026-05-05 16:50 | 51.59246 | 1.60883 | 33934 ft | 475 kts | 265° |
| 2026-05-05 16:50 | 51.59498 | 1.50272 | 33946 ft | 478 kts | 272° |
| 2026-05-05 16:51 | 51.60019 | 1.39615 | 33943 ft | 477 kts | 272° |
| 2026-05-05 16:51 | 51.60466 | 1.29047 | 33927 ft | 473 kts | 272° |
| 2026-05-05 16:52 | 51.60881 | 1.18489 | 33926 ft | 470 kts | 272° |
| 2026-05-05 16:52 | 51.61278 | 1.08072 | 33929 ft | 467 kts | 272° |
| 2026-05-05 16:53 | 51.61671 | 0.97643 | 33934 ft | 466 kts | 271° |
| 2026-05-05 16:53 | 51.62064 | 0.87265 | 33942 ft | 465 kts | 272° |
| 2026-05-05 16:54 | 51.62510 | 0.76869 | 33937 ft | 464 kts | 272° |
| 2026-05-05 16:54 | 51.62866 | 0.66494 | 33941 ft | 463 kts | 271° |
| 2026-05-05 16:55 | 51.63194 | 0.56145 | 33938 ft | 463 kts | 272° |
| 2026-05-05 16:55 | 51.63585 | 0.45838 | 33950 ft | 463 kts | 271° |
| 2026-05-05 16:56 | 51.63937 | 0.35453 | 33938 ft | 463 kts | 271° |
| 2026-05-05 16:56 | 51.64279 | 0.25151 | 33937 ft | 463 kts | 271° |
| 2026-05-05 16:57 | 51.64433 | 0.14831 | 33937 ft | 461 kts | 265° |
| 2026-05-05 16:57 | 51.63506 | 0.04625 | 33946 ft | 459 kts | 258° |
| 2026-05-05 16:58 | 51.62426 | -0.05007 | 34003 ft | 462 kts | 259° |
| 2026-05-05 16:58 | 51.61929 | -0.15346 | 34025 ft | 466 kts | 269° |
| 2026-05-05 16:59 | 51.62484 | -0.25739 | 34034 ft | 470 kts | 274° |
| 2026-05-05 16:59 | 51.63167 | -0.36239 | 33943 ft | 471 kts | 274° |
| 2026-05-05 17:00 | 51.63816 | -0.46760 | 33937 ft | 472 kts | 274° |
| 2026-05-05 17:00 | 51.64436 | -0.57249 | 33939 ft | 472 kts | 274° |
| 2026-05-05 17:01 | 51.65041 | -0.67718 | 33937 ft | 471 kts | 273° |
| 2026-05-05 17:01 | 51.65639 | -0.78230 | 33946 ft | 470 kts | 273° |
| 2026-05-05 17:02 | 51.66195 | -0.88124 | 33943 ft | 469 kts | 273° |
| 2026-05-05 17:02 | 51.66773 | -0.98590 | 33975 ft | 469 kts | 272° |
| 2026-05-05 17:03 | 51.67340 | -1.09016 | 33968 ft | 470 kts | 272° |
| 2026-05-05 17:03 | 51.67903 | -1.19552 | 33973 ft | 471 kts | 272° |
| 2026-05-05 17:04 | 51.68457 | -1.30096 | 33966 ft | 472 kts | 272° |
| 2026-05-05 17:04 | 51.69001 | -1.40620 | 33969 ft | 473 kts | 272° |
| 2026-05-05 17:05 | 51.69537 | -1.51201 | 33965 ft | 474 kts | 272° |
| 2026-05-05 17:05 | 51.70066 | -1.61768 | 33969 ft | 474 kts | 272° |
| 2026-05-05 17:06 | 51.70609 | -1.72385 | 33973 ft | 475 kts | 274° |
| 2026-05-05 17:06 | 51.71370 | -1.82974 | 33972 ft | 475 kts | 275° |
| 2026-05-05 17:07 | 51.72180 | -1.93567 | 33990 ft | 475 kts | 275° |
| 2026-05-05 17:07 | 51.72947 | -2.04092 | 33994 ft | 474 kts | 275° |
| 2026-05-05 17:08 | 51.73687 | -2.14655 | 33988 ft | 472 kts | 275° |
| 2026-05-05 17:08 | 51.74405 | -2.25111 | 33987 ft | 470 kts | 275° |
| 2026-05-05 17:09 | 51.75117 | -2.35603 | 33989 ft | 469 kts | 275° |
| 2026-05-05 17:09 | 51.75819 | -2.46090 | 34000 ft | 469 kts | 275° |
| 2026-05-05 17:10 | 51.76511 | -2.56562 | 33987 ft | 468 kts | 275° |
| 2026-05-05 17:10 | 51.77190 | -2.66969 | 33977 ft | 467 kts | 275° |
| 2026-05-05 17:11 | 51.77862 | -2.77411 | 33992 ft | 468 kts | 275° |
| 2026-05-05 17:11 | 51.78526 | -2.87884 | 34031 ft | 469 kts | 275° |
| 2026-05-05 17:12 | 51.79179 | -2.98345 | 34016 ft | 472 kts | 276° |
| 2026-05-05 17:12 | 51.79834 | -3.08965 | 34028 ft | 474 kts | 276° |
| 2026-05-05 17:13 | 51.80478 | -3.19550 | 34012 ft | 476 kts | 275° |
| 2026-05-05 17:13 | 51.81110 | -3.30215 | 34004 ft | 476 kts | 275° |
| 2026-05-05 17:14 | 51.81738 | -3.40893 | 33978 ft | 476 kts | 276° |
| 2026-05-05 17:14 | 51.82363 | -3.51506 | 33986 ft | 475 kts | 277° |
| 2026-05-05 17:15 | 51.83473 | -3.61949 | 34006 ft | 474 kts | 284° |
| 2026-05-05 17:15 | 51.84883 | -3.72397 | 34005 ft | 475 kts | 283° |
| 2026-05-05 17:16 | 51.86246 | -3.82840 | 34005 ft | 476 kts | 283° |
| 2026-05-05 17:16 | 51.87592 | -3.93396 | 33999 ft | 477 kts | 283° |
| 2026-05-05 17:17 | 51.88920 | -4.03877 | 34008 ft | 477 kts | 283° |
| 2026-05-05 17:17 | 51.90247 | -4.14418 | 34013 ft | 477 kts | 283° |
| 2026-05-05 17:18 | 51.91554 | -4.24875 | 34009 ft | 476 kts | 283° |
| 2026-05-05 17:18 | 51.92860 | -4.35394 | 34017 ft | 476 kts | 283° |
| 2026-05-05 17:19 | 51.94154 | -4.45908 | 34018 ft | 474 kts | 282° |
| 2026-05-05 17:19 | 51.95433 | -4.56387 | 34026 ft | 472 kts | 283° |
| 2026-05-05 17:20 | 51.96695 | -4.66770 | 34019 ft | 470 kts | 281° |
| 2026-05-05 17:20 | 51.97940 | -4.77153 | 34030 ft | 468 kts | 281° |
| 2026-05-05 17:21 | 51.99168 | -4.87442 | 34029 ft | 466 kts | 281° |
| 2026-05-05 17:22 | 52.01007 | -5.02991 | 34046 ft | 467 kts | 281° |
| 2026-05-05 17:22 | 52.02200 | -5.13306 | 34041 ft | 468 kts | 280° |
| 2026-05-05 17:23 | 52.03321 | -5.21870 | 34044 ft | 468 kts | 286° |
| 2026-05-05 17:23 | 52.05689 | -5.33428 | 34040 ft | 470 kts | 288° |
| 2026-05-05 17:24 | 52.07419 | -5.41793 | 34043 ft | 470 kts | 288° |
| 2026-05-05 17:24 | 52.09466 | -5.51894 | 34049 ft | 468 kts | 288° |
| 2026-05-05 17:25 | 52.11476 | -5.61932 | 34043 ft | 467 kts | 288° |
| 2026-05-05 17:25 | 52.13486 | -5.72018 | 34047 ft | 467 kts | 288° |
| 2026-05-05 17:26 | 52.15483 | -5.82103 | 34060 ft | 468 kts | 286° |
| 2026-05-05 17:26 | 52.16866 | -5.92391 | 34061 ft | 467 kts | 279° |
| 2026-05-05 17:27 | 52.17937 | -6.02788 | 34059 ft | 467 kts | 279° |
| 2026-05-05 17:27 | 52.19019 | -6.13235 | 34055 ft | 467 kts | 279° |
| 2026-05-05 17:28 | 52.20108 | -6.23632 | 34056 ft | 466 kts | 279° |
| 2026-05-05 17:28 | 52.21201 | -6.34066 | 34057 ft | 466 kts | 279° |
| 2026-05-05 17:29 | 52.22285 | -6.44507 | 34058 ft | 466 kts | 279° |
| 2026-05-05 17:29 | 52.23359 | -6.54956 | 34056 ft | 466 kts | 279° |
| 2026-05-05 17:30 | 52.24416 | -6.65328 | 34063 ft | 466 kts | 279° |
| 2026-05-05 17:30 | 52.25472 | -6.75793 | 34065 ft | 466 kts | 279° |
| 2026-05-05 17:31 | 52.26512 | -6.86195 | 34072 ft | 466 kts | 279° |
| 2026-05-05 17:31 | 52.27551 | -6.96683 | 34073 ft | 466 kts | 279° |
| 2026-05-05 17:32 | 52.28578 | -7.07157 | 34078 ft | 466 kts | 279° |
| 2026-05-05 17:32 | 52.29590 | -7.17565 | 34068 ft | 466 kts | 279° |
| 2026-05-05 17:33 | 52.30599 | -7.28043 | 34078 ft | 465 kts | 279° |
| 2026-05-05 17:33 | 52.31596 | -7.38505 | 34064 ft | 465 kts | 279° |
| 2026-05-05 17:34 | 52.32578 | -7.48897 | 34061 ft | 464 kts | 279° |
| 2026-05-05 17:34 | 52.33553 | -7.59334 | 34058 ft | 463 kts | 278° |
| 2026-05-05 17:35 | 52.34512 | -7.69689 | 34056 ft | 463 kts | 278° |
| 2026-05-05 17:35 | 52.35468 | -7.80119 | 34059 ft | 463 kts | 278° |
| 2026-05-05 17:36 | 52.36415 | -7.90558 | 34058 ft | 462 kts | 278° |
| 2026-05-05 17:36 | 52.37348 | -8.00934 | 34067 ft | 462 kts | 278° |
| 2026-05-05 17:37 | 52.38269 | -8.11300 | 34064 ft | 462 kts | 278° |
| 2026-05-05 17:37 | 52.39188 | -8.21725 | 34074 ft | 462 kts | 278° |
| 2026-05-05 17:38 | 52.40130 | -8.32150 | 34069 ft | 462 kts | 279° |
| 2026-05-05 17:38 | 52.41241 | -8.42473 | 34078 ft | 462 kts | 280° |
| 2026-05-05 17:39 | 52.42382 | -8.52844 | 34082 ft | 462 kts | 280° |
| 2026-05-05 17:39 | 52.43492 | -8.63223 | 34083 ft | 462 kts | 280° |
| 2026-05-05 17:40 | 52.44578 | -8.73605 | 34089 ft | 461 kts | 279° |
| 2026-05-05 17:40 | 52.45650 | -8.83984 | 34088 ft | 461 kts | 279° |
| 2026-05-05 17:41 | 52.46708 | -8.94306 | 34077 ft | 460 kts | 279° |
| 2026-05-05 17:41 | 52.47755 | -9.04614 | 34086 ft | 459 kts | 279° |
| 2026-05-05 17:42 | 52.48796 | -9.14953 | 34083 ft | 458 kts | 279° |
| 2026-05-05 17:42 | 52.49829 | -9.25296 | 34091 ft | 458 kts | 279° |
| 2026-05-05 17:43 | 52.50842 | -9.35546 | 34090 ft | 458 kts | 279° |
| 2026-05-05 17:43 | 52.51854 | -9.45877 | 34097 ft | 458 kts | 279° |
| 2026-05-05 17:44 | 52.52859 | -9.56227 | 34097 ft | 458 kts | 279° |
| 2026-05-05 17:44 | 52.53851 | -9.66530 | 34100 ft | 458 kts | 279° |
| 2026-05-05 17:45 | 52.54884 | -9.76866 | 34094 ft | 457 kts | 280° |
| 2026-05-05 17:45 | 52.56016 | -9.87165 | 34107 ft | 457 kts | 280° |
| 2026-05-05 17:46 | 52.57143 | -9.97396 | 34103 ft | 457 kts | 280° |
| 2026-05-05 17:46 | 52.58256 | -10.07711 | 34110 ft | 457 kts | 280° |
| 2026-05-05 17:47 | 52.59343 | -10.17950 | 34107 ft | 456 kts | 280° |
| 2026-05-05 17:47 | 52.60422 | -10.28231 | 34104 ft | 454 kts | 279° |
| 2026-05-05 17:48 | 52.61489 | -10.38478 | 34108 ft | 453 kts | 279° |
| 2026-05-05 17:48 | 52.62538 | -10.48635 | 34114 ft | 453 kts | 279° |
| 2026-05-05 17:49 | 52.63586 | -10.58873 | 34110 ft | 453 kts | 279° |
| 2026-05-05 17:49 | 52.64625 | -10.69117 | 34118 ft | 453 kts | 279° |
| 2026-05-05 17:50 | 52.65650 | -10.79318 | 34119 ft | 453 kts | 279° |
| 2026-05-05 17:50 | 52.66674 | -10.89591 | 34123 ft | 454 kts | 279° |
| 2026-05-05 17:51 | 52.67681 | -10.99797 | 34122 ft | 454 kts | 279° |
| 2026-05-05 17:51 | 52.68689 | -11.10098 | 34128 ft | 454 kts | 279° |
| 2026-05-05 17:52 | 52.69683 | -11.20349 | 34127 ft | 454 kts | 279° |
| 2026-05-05 17:52 | 52.70672 | -11.30659 | 34125 ft | 454 kts | 279° |
| 2026-05-05 17:53 | 52.71654 | -11.40987 | 34143 ft | 454 kts | 278° |
| 2026-05-05 17:53 | 52.72620 | -11.51241 | 34133 ft | 454 kts | 278° |
| 2026-05-05 17:54 | 52.73580 | -11.61532 | 34133 ft | 453 kts | 278° |
| 2026-05-05 17:54 | 52.74525 | -11.71763 | 34130 ft | 452 kts | 278° |
| 2026-05-05 17:55 | 52.75461 | -11.81996 | 34131 ft | 452 kts | 278° |
| 2026-05-05 17:55 | 52.76392 | -11.92280 | 34139 ft | 451 kts | 278° |
| 2026-05-05 17:56 | 52.77307 | -12.02485 | 34145 ft | 451 kts | 278° |
| 2026-05-05 17:56 | 52.78218 | -12.12752 | 34146 ft | 451 kts | 278° |
| 2026-05-05 17:57 | 52.79122 | -12.23039 | 34152 ft | 451 kts | 277° |
| 2026-05-05 17:57 | 52.80011 | -12.33256 | 34141 ft | 451 kts | 277° |
| 2026-05-05 17:58 | 52.80895 | -12.43535 | 34151 ft | 451 kts | 277° |
| 2026-05-05 17:58 | 52.81773 | -12.53836 | 34150 ft | 451 kts | 277° |
| 2026-05-05 17:59 | 52.82635 | -12.64063 | 34149 ft | 451 kts | 277° |
| 2026-05-05 17:59 | 52.83495 | -12.74376 | 34145 ft | 451 kts | 277° |
| 2026-05-05 18:00 | 52.84338 | -12.84604 | 34167 ft | 451 kts | 277° |
| 2026-05-05 18:00 | 52.85180 | -12.94926 | 34155 ft | 451 kts | 277° |
| 2026-05-05 18:01 | 52.86007 | -13.05177 | 34162 ft | 451 kts | 277° |
| 2026-05-05 18:01 | 52.86833 | -13.15521 | 34160 ft | 452 kts | 277° |
| 2026-05-05 18:02 | 52.87642 | -13.25778 | 34152 ft | 452 kts | 276° |
| 2026-05-05 18:02 | 52.88449 | -13.36114 | 34159 ft | 452 kts | 276° |
| 2026-05-05 18:03 | 52.89242 | -13.46405 | 34161 ft | 452 kts | 276° |
| 2026-05-05 18:03 | 52.90032 | -13.56767 | 34156 ft | 452 kts | 276° |
| 2026-05-05 18:04 | 52.90810 | -13.67096 | 34164 ft | 453 kts | 276° |
| 2026-05-05 18:04 | 52.91582 | -13.77469 | 34165 ft | 453 kts | 276° |
| 2026-05-05 18:05 | 52.92343 | -13.87815 | 34161 ft | 453 kts | 276° |
| 2026-05-05 18:05 | 52.93092 | -13.98137 | 34175 ft | 453 kts | 276° |
| 2026-05-05 18:06 | 52.93837 | -14.08518 | 34167 ft | 453 kts | 276° |
| 2026-05-05 18:06 | 52.94569 | -14.18851 | 34165 ft | 453 kts | 276° |
| 2026-05-05 18:07 | 52.95297 | -14.29253 | 34160 ft | 452 kts | 276° |
| 2026-05-05 18:07 | 52.96009 | -14.39564 | 34165 ft | 452 kts | 276° |
| 2026-05-05 18:08 | 52.96718 | -14.49962 | 34171 ft | 453 kts | 275° |
| 2026-05-05 18:08 | 52.97415 | -14.60325 | 34171 ft | 453 kts | 275° |
| 2026-05-05 18:09 | 52.98106 | -14.70730 | 34171 ft | 453 kts | 275° |
| 2026-05-05 18:09 | 52.98674 | -14.79396 | 34172 ft | 454 kts | 275° |
| 2026-05-05 18:10 | 52.99460 | -14.91523 | 34169 ft | 454 kts | 275° |
| 2026-05-05 18:10 | 53.00273 | -15.00140 | 34171 ft | 455 kts | 282° |
| 2026-05-05 18:11 | 53.02210 | -15.10164 | 34180 ft | 456 kts | 289° |
| 2026-05-05 18:11 | 53.04463 | -15.20027 | 34181 ft | 456 kts | 289° |
| 2026-05-05 18:12 | 53.06686 | -15.29856 | 34181 ft | 457 kts | 289° |
| 2026-05-05 18:12 | 53.08900 | -15.39775 | 34177 ft | 457 kts | 289° |
| 2026-05-05 18:13 | 53.11100 | -15.49717 | 34182 ft | 457 kts | 289° |
| 2026-05-05 18:13 | 53.13274 | -15.59596 | 34184 ft | 456 kts | 289° |
| 2026-05-05 18:14 | 53.15453 | -15.69542 | 34166 ft | 456 kts | 289° |
| 2026-05-05 18:14 | 53.17624 | -15.79495 | 34181 ft | 456 kts | 289° |
| 2026-05-05 18:15 | 53.19771 | -15.89392 | 34172 ft | 456 kts | 289° |
| 2026-05-05 18:15 | 53.21926 | -15.99371 | 34192 ft | 457 kts | 289° |
| 2026-05-05 18:16 | 53.24071 | -16.09350 | 34178 ft | 457 kts | 289° |
| 2026-05-05 18:16 | 53.26213 | -16.19364 | 34176 ft | 457 kts | 289° |
| 2026-05-05 18:17 | 53.28336 | -16.29340 | 34175 ft | 458 kts | 288° |
| 2026-05-05 18:17 | 53.30459 | -16.39366 | 34176 ft | 458 kts | 288° |
| 2026-05-05 18:18 | 53.32579 | -16.49428 | 34181 ft | 458 kts | 288° |
| 2026-05-05 18:18 | 53.34693 | -16.59508 | 34190 ft | 458 kts | 288° |
| 2026-05-05 18:19 | 53.36785 | -16.69537 | 34185 ft | 459 kts | 288° |
| 2026-05-05 18:19 | 53.38887 | -16.79663 | 34187 ft | 460 kts | 288° |
| 2026-05-05 18:20 | 53.40987 | -16.89829 | 34188 ft | 461 kts | 288° |
| 2026-05-05 18:20 | 53.43071 | -16.99971 | 34193 ft | 462 kts | 288° |
| 2026-05-05 18:21 | 53.45160 | -17.10190 | 34183 ft | 462 kts | 288° |
| 2026-05-05 18:21 | 53.47236 | -17.20402 | 34188 ft | 462 kts | 288° |
| 2026-05-05 18:22 | 53.49305 | -17.30625 | 34193 ft | 462 kts | 288° |
| 2026-05-05 18:22 | 53.51357 | -17.40825 | 34191 ft | 464 kts | 288° |
| 2026-05-05 18:23 | 53.53425 | -17.51151 | 34200 ft | 466 kts | 288° |
| 2026-05-05 18:23 | 53.55476 | -17.61448 | 34201 ft | 467 kts | 288° |
| 2026-05-05 18:24 | 53.57542 | -17.71877 | 34192 ft | 468 kts | 288° |
| 2026-05-05 18:24 | 53.59595 | -17.82298 | 34201 ft | 469 kts | 288° |
| 2026-05-05 18:25 | 53.61627 | -17.92662 | 34194 ft | 468 kts | 288° |
| 2026-05-05 18:25 | 53.63660 | -18.03091 | 34192 ft | 468 kts | 288° |
| 2026-05-05 18:26 | 53.65687 | -18.13555 | 34203 ft | 469 kts | 288° |
| 2026-05-05 18:26 | 53.67700 | -18.23988 | 34200 ft | 470 kts | 288° |
| 2026-05-05 18:27 | 53.69717 | -18.34504 | 34198 ft | 470 kts | 288° |
| 2026-05-05 18:27 | 53.71715 | -18.44979 | 34201 ft | 471 kts | 288° |